8F214 / PK-DJS 7700 Squawk Report (6th of October, 2022)

Time Lat Lon Altitude Heading Speed Vertical Rate
2022-10-06 18:02:39 GMT 1.134525 104.120842 200 42 148 -576
2022-10-06 18:02:32 GMT 1.130056 104.116722 350 42 147 0
2022-10-06 18:02:24 GMT 1.126099 104.113121 350 43 147 -448
2022-10-06 18:02:21 GMT 1.125046 104.112076 375 42 148 -448
2022-10-06 18:02:11 GMT 1.120093 104.107437 475 42 150 -832
2022-10-06 18:02:08 GMT 1.118045 104.105736 525 42 150 -704
2022-10-06 18:02:03 GMT 1.115616 104.103516 575 41 146 -256
2022-10-06 18:01:59 GMT 1.114088 104.102135 575 42 147 -320
2022-10-06 18:01:52 GMT 1.110457 104.098869 650 43 147 -640
2022-10-06 18:01:42 GMT 1.104813 104.093735 775 42 149 -768
2022-10-06 18:01:32 GMT 1.099983 104.089256 925 42 149 -960
2022-10-06 18:01:24 GMT 1.095383 104.085121 1,075 42 149 -960
2022-10-06 18:01:20 GMT 1.094009 104.083771 1,125 42 150 -960
2022-10-06 18:01:17 GMT 1.092453 104.082565 1,150 43 150 -960
2022-10-06 18:01:10 GMT 1.089020 104.079308 1,325 42 156 -960
2022-10-06 18:01:07 GMT 1.086948 104.077415 1,325 42 157 -1024
2022-10-06 18:01:03 GMT 1.084900 104.075714 1,400 42 159 -1216
2022-10-06 18:01:01 GMT 1.083177 104.074005 1,475 42 160 -1280
2022-10-06 18:00:57 GMT 1.081284 104.072273 1,550 42 163 -1280
2022-10-06 18:00:52 GMT 1.079221 104.070358 1,650 42 165 -1344
2022-10-06 18:00:47 GMT 1.075607 104.067108 1,750 42 168 -1344
2022-10-06 18:00:43 GMT 1.071353 104.063354 1,900 42 172 -1344
2022-10-06 18:00:40 GMT 1.071353 104.063354 1,900 42 172 -1280
2022-10-06 18:00:32 GMT 1.066360 104.058731 2,050 42 179 -768
2022-10-06 18:00:28 GMT 1.064804 104.057335 2,075 42 181 -576
2022-10-06 18:00:21 GMT 1.059855 104.053032 2,075 41 184 768
2022-10-06 18:00:18 GMT 1.057938 104.051331 2,050 41 186 832
2022-10-06 18:00:11 GMT 1.052811 104.046532 2,000 42 191 128
2022-10-06 18:00:08 GMT 1.051254 104.045135 2,000 42 192 0
2022-10-06 18:00:02 GMT 1.046774 104.041191 2,000 42 194 0
2022-10-06 17:59:59 GMT 1.045944 104.040344 2,000 41 194 64
2022-10-06 17:59:56 GMT 1.043887 104.038445 2,000 41 194 64
2022-10-06 17:59:50 GMT 1.038895 104.034012 2,000 42 195 -64
2022-10-06 17:59:47 GMT 1.037018 104.032288 2,000 42 195 -64
2022-10-06 17:59:39 GMT 1.031845 104.027634 2,000 42 196 0
2022-10-06 17:59:36 GMT 1.029968 104.025909 2,000 42 196 64
2022-10-06 17:59:29 GMT 1.024658 104.021118 2,000 42 195 0
2022-10-06 17:59:26 GMT 1.022753 104.019409 2,000 42 195 64
2022-10-06 17:59:17 GMT 1.017446 104.014580 1,975 42 194 0
2022-10-06 17:59:14 GMT 1.015732 104.013062 1,975 42 195 0
2022-10-06 17:59:08 GMT 1.010742 104.008423 1,975 42 196 0
2022-10-06 17:59:05 GMT 1.008834 104.006714 1,975 42 196 0
2022-10-06 17:59:02 GMT 1.006622 104.004639 1,975 42 196 0
2022-10-06 17:58:57 GMT 1.003510 104.001892 1,975 42 197 0
2022-10-06 17:58:54 GMT 1.001633 104.000168 1,975 42 196 64
2022-10-06 17:58:44 GMT 0.994449 103.993835 1,975 42 195 320
2022-10-06 17:58:35 GMT 0.989273 103.988991 1,925 42 196 0
2022-10-06 17:58:28 GMT 0.984301 103.984550 2,000 42 197 -768
2022-10-06 17:58:23 GMT 0.979832 103.980621 2,050 42 195 -64
2022-10-06 17:58:14 GMT 0.973846 103.975121 2,025 43 194 64
2022-10-06 17:58:11 GMT 0.973128 103.974609 2,025 43 194 0
2022-10-06 17:58:07 GMT 0.970047 103.971680 2,025 42 194 -64
2022-10-06 17:58:03 GMT 0.966983 103.968925 2,050 42 194 -64
2022-10-06 17:58:00 GMT 0.965773 103.967743 2,050 42 195 0
2022-10-06 17:57:57 GMT 0.963538 103.965851 2,050 42 195 0
2022-10-06 17:57:51 GMT 0.958878 103.961525 2,025 42 196 0
2022-10-06 17:57:43 GMT 0.953576 103.956757 2,050 42 195 0
2022-10-06 17:57:40 GMT 0.951874 103.955009 2,050 41 196 0
2022-10-06 17:57:35 GMT 0.948441 103.952263 2,025 36 195 128
2022-10-06 17:57:30 GMT 0.943954 103.949379 2,025 31 197 0
2022-10-06 17:57:22 GMT 0.938307 103.945389 2,025 39 200 -128
2022-10-06 17:57:19 GMT 0.936398 103.943687 2,025 42 201 -128
2022-10-06 17:57:11 GMT 0.930588 103.937508 2,050 52 205 0
2022-10-06 17:57:07 GMT 0.928345 103.934433 2,025 52 208 64
2022-10-06 17:57:03 GMT 0.926948 103.932701 2,025 52 209 128
2022-10-06 17:56:57 GMT 0.923177 103.927917 2,000 52 214 128
2022-10-06 17:56:52 GMT 0.920105 103.923943 2,000 51 223 -320
2022-10-06 17:56:48 GMT 0.916846 103.919823 2,025 51 224 -192
2022-10-06 17:56:36 GMT 0.909622 103.911438 2,025 45 226 128
2022-10-06 17:56:30 GMT 0.903625 103.905563 2,025 44 226 64
2022-10-06 17:56:27 GMT 0.901903 103.903862 2,025 46 227 192
2022-10-06 17:56:20 GMT 0.897620 103.899223 2,000 50 228 -704
2022-10-06 17:56:14 GMT 0.893151 103.894104 2,225 55 231 -960
2022-10-06 17:56:04 GMT 0.886093 103.884621 2,200 54 230 -896
2022-10-06 17:55:53 GMT 0.879913 103.875359 2,400 55 232 -960
2022-10-06 17:55:44 GMT 0.873917 103.868004 2,550 43 234 -1088
2022-10-06 17:55:34 GMT 0.863963 103.862144 2,650 18 240 -448
2022-10-06 17:55:25 GMT 0.853163 103.860771 2,750 359 245 -640
2022-10-06 17:55:20 GMT 0.849532 103.861290 2,775 354 245 -704
2022-10-06 17:55:13 GMT 0.840966 103.864555 2,850 330 251 -896
2022-10-06 17:55:04 GMT 0.833239 103.871231 3,050 310 252 -1344
2022-10-06 17:55:00 GMT 0.830492 103.874504 3,125 309 252 -1216
2022-10-06 17:54:36 GMT 0.811964 103.898041 3,625 308 257 -1216
2022-10-06 17:54:33 GMT 0.810428 103.899933 3,625 309 261 -1088
2022-10-06 17:54:29 GMT 0.807312 103.903847 3,700 309 261 -1152
2022-10-06 17:54:19 GMT 0.800125 103.913162 3,925 308 263 -1344
2022-10-06 17:54:13 GMT 0.795135 103.919678 4,075 308 264 -1472
2022-10-06 17:54:06 GMT 0.789642 103.926704 4,275 308 264 -1536
2022-10-06 17:54:03 GMT 0.787385 103.929619 4,350 308 264 -1600
2022-10-06 17:54:00 GMT 0.786221 103.931183 4,375 307 263 -1536
2022-10-06 17:53:56 GMT 0.783463 103.934761 4,475 308 264 -1600
2022-10-06 17:53:52 GMT 0.779005 103.940422 4,625 308 264 -1472
2022-10-06 17:53:47 GMT 0.775543 103.944908 4,750 308 264 -1536
2022-10-06 17:53:40 GMT 0.771286 103.950729 4,900 307 263 -1472
2022-10-06 17:53:37 GMT 0.768860 103.953804 5,050 310 265 -1344
2022-10-06 17:53:34 GMT 0.765784 103.957420 5,050 310 265 -1344
2022-10-06 17:53:30 GMT 0.762863 103.960365 5,125 318 266 -1472
2022-10-06 17:53:20 GMT 0.752060 103.967392 5,425 337 268 -1728
2022-10-06 17:53:15 GMT 0.745514 103.969627 5,575 347 269 -1536
2022-10-06 17:53:08 GMT 0.738831 103.971008 5,700 350 269 -1536
2022-10-06 17:53:04 GMT 0.732147 103.972374 5,850 350 269 -1536
2022-10-06 17:52:58 GMT 0.725424 103.973572 6,000 349 270 -1600
2022-10-06 17:52:52 GMT 0.719092 103.974754 6,125 349 270 -1600
2022-10-06 17:52:48 GMT 0.712575 103.976128 6,275 349 270 -1600
2022-10-06 17:52:43 GMT 0.706055 103.977356 6,400 349 270 -1600
2022-10-06 17:52:38 GMT 0.700378 103.978539 6,550 349 270 -1600
2022-10-06 17:52:35 GMT 0.696075 103.979218 6,625 349 270 -1536
2022-10-06 17:52:32 GMT 0.692642 103.979919 6,700 349 270 -1536
2022-10-06 17:52:26 GMT 0.685272 103.981453 6,850 349 271 -1472
2022-10-06 17:52:20 GMT 0.679779 103.982475 6,950 349 271 -1408
2022-10-06 17:52:17 GMT 0.674123 103.983704 7,050 349 271 -1472
2022-10-06 17:52:14 GMT 0.670349 103.984383 7,125 349 272 -1536
2022-10-06 17:52:11 GMT 0.666916 103.985085 7,200 349 272 -1536
2022-10-06 17:52:03 GMT 0.657643 103.986969 7,350 349 274 -1280
2022-10-06 17:52:00 GMT 0.653000 103.987831 7,425 349 275 -1280
2022-10-06 17:51:56 GMT 0.648376 103.988670 7,500 349 277 -896
2022-10-06 17:51:53 GMT 0.643890 103.989693 7,525 349 279 -512
2022-10-06 17:51:48 GMT 0.639267 103.990578 7,575 349 281 -512
2022-10-06 17:51:45 GMT 0.634786 103.991417 7,600 349 284 -384
2022-10-06 17:51:42 GMT 0.632034 103.991928 7,600 349 286 -320
2022-10-06 17:51:35 GMT 0.621053 103.994164 7,650 350 294 -448
2022-10-06 17:51:23 GMT 0.606125 103.997093 7,725 350 305 -512
2022-10-06 17:51:18 GMT 0.599593 103.998283 7,750 349 320 -512
2022-10-06 17:51:14 GMT 0.591385 103.999840 7,800 350 315 -448
2022-10-06 17:51:07 GMT 0.583145 104.001373 7,850 349 320 -512
2022-10-06 17:51:03 GMT 0.576096 104.002724 7,875 349 325 -448
2022-10-06 17:51:00 GMT 0.570963 104.003777 7,900 349 329 -640
2022-10-06 17:50:53 GMT 0.559799 104.005989 8,025 349 335 -832
2022-10-06 17:50:48 GMT 0.555135 104.006859 8,075 349 338 -1344
2022-10-06 17:50:39 GMT 0.539337 104.009941 8,425 349 339 -2496
2022-10-06 17:50:32 GMT 0.527344 104.012352 8,750 349 339 -2560
2022-10-06 17:50:28 GMT 0.523061 104.013206 8,875 349 339 -2432
2022-10-06 17:50:18 GMT 0.506561 104.016457 10,250 349 351 -1344
2022-10-06 17:50:11 GMT 0.494705 104.018692 9,525 349 341 -2048
2022-10-06 17:50:06 GMT 0.489761 104.019714 9,625 349 342 -1984
2022-10-06 17:49:57 GMT 0.461929 104.025070 10,250 349 351 -1344
2022-10-06 17:49:50 GMT 0.461929 104.025070 10,150 349 348 -1600
2022-10-06 17:49:43 GMT 0.451126 104.027306 10,325 349 351 -1344
2022-10-06 17:49:39 GMT 0.447189 104.027962 10,400 349 354 -1728
2022-10-06 17:49:36 GMT 0.439453 104.029541 10,575 349 355 -2560
2022-10-06 17:49:28 GMT 0.427780 104.031776 10,950 349 353 -3200
2022-10-06 17:49:24 GMT 0.422607 104.032799 11,125 349 351 -3328
2022-10-06 17:49:17 GMT 0.410777 104.035034 11,550 349 347 -3712
2022-10-06 17:49:14 GMT 0.405441 104.036057 11,775 349 345 -3456
2022-10-06 17:49:07 GMT 0.394484 104.038300 12,125 349 343 -2624
2022-10-06 17:49:04 GMT 0.388804 104.039299 12,250 349 344 -1792
2022-10-06 17:48:57 GMT 0.377838 104.041550 12,450 349 346 -1600
2022-10-06 17:48:53 GMT 0.372665 104.042580 12,550 349 347 -2624
2022-10-06 17:48:46 GMT 0.360672 104.044807 13,000 350 341 -4160
2022-10-06 17:48:43 GMT 0.356032 104.045639 13,200 349 338 -3968
2022-10-06 17:48:36 GMT 0.344696 104.047882 13,600 349 335 -2752
2022-10-06 17:48:31 GMT 0.339203 104.048904 13,750 349 334 -2240
2022-10-06 17:48:25 GMT 0.328720 104.051003 13,900 349 338 -896
2022-10-06 17:48:22 GMT 0.323730 104.052025 13,925 349 340 -512
2022-10-06 17:48:15 GMT 0.311920 104.054260 13,950 349 349 -64
2022-10-06 17:48:09 GMT 0.303846 104.055779 13,950 349 357 128
2022-10-06 17:48:03 GMT 0.294891 104.057518 13,950 349 363 -64
2022-10-06 17:48:00 GMT 0.287879 104.058899 13,975 349 367 -384
2022-10-06 17:47:54 GMT 0.277405 104.060921 14,075 349 374 -1216
2022-10-06 17:47:49 GMT 0.271586 104.062119 14,150 349 376 -1600
2022-10-06 17:47:43 GMT 0.259901 104.064392 14,400 350 378 -2304
2022-10-06 17:47:38 GMT 0.250777 104.066101 14,600 349 380 -2368
2022-10-06 17:47:33 GMT 0.240829 104.068130 14,825 349 381 -2368
2022-10-06 17:47:29 GMT 0.235508 104.069176 14,950 349 382 -2368
2022-10-06 17:47:22 GMT 0.222656 104.071579 15,225 349 384 -2304
2022-10-06 17:47:18 GMT 0.215258 104.073105 15,400 349 385 -2368
2022-10-06 17:47:11 GMT 0.203247 104.075378 15,675 349 394 -2368
2022-10-06 17:47:07 GMT 0.197937 104.076370 15,775 349 387 -2304
2022-10-06 17:47:02 GMT 0.189514 104.078094 15,975 349 394 -2368
2022-10-06 17:46:58 GMT 0.178711 104.080002 16,200 350 389 -2432
2022-10-06 17:46:51 GMT 0.167029 104.082245 16,475 350 392 -2432
2022-10-06 17:46:47 GMT 0.160512 104.083618 16,625 350 393 -2432
2022-10-06 17:46:40 GMT 0.148636 104.085823 17,725 349 394 -2368
2022-10-06 17:46:36 GMT 0.141798 104.087219 17,050 349 395 -2368
2022-10-06 17:46:30 GMT 0.115031 104.092331 17,725 349 397 -2368
2022-10-06 17:46:22 GMT 0.115031 104.092331 17,575 349 397 -2368
2022-10-06 17:46:18 GMT 0.102648 104.094749 17,825 349 401 -2496
2022-10-06 17:46:14 GMT 0.102648 104.094749 17,925 349 401 -2496
2022-10-06 17:46:09 GMT 0.091324 104.096992 18,175 349 401 -2496
2022-10-06 17:46:05 GMT 0.082910 104.098724 18,350 349 402 -2432
2022-10-06 17:45:57 GMT 0.071085 104.100952 18,625 349 404 -2496
2022-10-06 17:45:54 GMT 0.064865 104.102119 18,775 349 405 -2496
2022-10-06 17:45:47 GMT 0.051859 104.104691 19,050 349 406 -2432
2022-10-06 17:45:43 GMT 0.042921 104.106445 19,250 349 407 -2432
2022-10-06 17:45:36 GMT 0.032089 104.108681 19,500 349 409 -2496
2022-10-06 17:45:33 GMT 0.025406 104.109840 19,650 349 409 -2496
2022-10-06 17:45:23 GMT 0.005814 104.113800 20,100 349 412 -2560
2022-10-06 17:45:16 GMT -0.008054 104.116577 20,400 349 414 -2560
2022-10-06 17:45:10 GMT -0.017532 104.118454 20,625 349 415 -2560
2022-10-06 17:45:05 GMT -0.027792 104.120506 20,850 349 417 -2496
2022-10-06 17:44:55 GMT -0.047576 104.124443 21,275 349 419 -2496
2022-10-06 17:44:44 GMT -0.067978 104.128555 21,700 349 422 -2368
2022-10-06 17:44:41 GMT -0.074844 104.129951 21,825 349 424 -1984
2022-10-06 17:44:34 GMT -0.087891 104.132515 22,050 349 425 -1472
2022-10-06 17:44:28 GMT -0.099564 104.134750 22,175 349 430 -960
2022-10-06 17:44:23 GMT -0.108170 104.136475 22,250 349 427 -1024
2022-10-06 17:44:18 GMT -0.120338 104.138885 22,350 349 430 -960
2022-10-06 17:44:12 GMT -0.129788 104.140778 22,425 349 430 -960
2022-10-06 17:44:09 GMT -0.135979 104.141960 22,475 349 431 -1024
2022-10-06 17:44:02 GMT -0.149340 104.144516 22,600 349 432 -1024
2022-10-06 17:43:58 GMT -0.158432 104.146431 22,675 349 433 -960
2022-10-06 17:43:52 GMT -0.169418 104.148483 22,750 349 433 -960
2022-10-06 17:43:48 GMT -0.179031 104.150391 22,850 349 434 -1024
2022-10-06 17:43:40 GMT -0.191757 104.152954 22,950 349 435 -960
2022-10-06 17:43:31 GMT -0.211999 104.156876 23,125 349 437 -1024
2022-10-06 17:43:26 GMT -0.224350 104.159279 23,225 349 438 -1024
2022-10-06 17:43:20 GMT -0.232761 104.160995 23,300 349 439 -1024
2022-10-06 17:43:10 GMT -0.254408 104.165306 23,475 349 441 -1024
2022-10-06 17:43:03 GMT -0.275356 104.169426 23,925 349 442 -960
2022-10-06 17:42:58 GMT -0.275356 104.169426 23,650 349 441 -1024
2022-10-06 17:42:54 GMT -0.283768 104.171150 23,725 349 441 -1024
2022-10-06 17:42:49 GMT -0.296305 104.173546 23,825 349 442 -1024
2022-10-06 17:42:42 GMT -0.312790 104.176971 23,975 349 442 -960
2022-10-06 17:42:37 GMT -0.318929 104.178185 24,025 349 443 -1024
2022-10-06 17:42:32 GMT -0.328566 104.180084 24,100 349 444 -1024
2022-10-06 17:42:27 GMT -0.339878 104.182495 24,200 349 443 -960
2022-10-06 17:42:22 GMT -0.351562 104.184700 24,275 349 442 -960
2022-10-06 17:42:16 GMT -0.359619 104.186424 24,350 349 441 -960
2022-10-06 17:42:11 GMT -0.374222 104.189354 24,450 349 440 -896
2022-10-06 17:42:07 GMT -0.382141 104.190887 24,525 349 440 -960
2022-10-06 17:42:02 GMT -0.388990 104.192253 24,575 349 439 -960
2022-10-06 17:41:59 GMT -0.395874 104.193642 24,625 349 439 -960
2022-10-06 17:41:55 GMT -0.402723 104.194855 24,700 349 438 -960
2022-10-06 17:41:50 GMT -0.416270 104.197601 24,800 349 437 -1024
2022-10-06 17:41:44 GMT -0.424184 104.199120 24,875 349 435 -1024
2022-10-06 17:41:39 GMT -0.436893 104.201721 24,950 349 433 -768
2022-10-06 17:41:34 GMT -0.445129 104.203224 25,000 349 432 -256
2022-10-06 17:41:31 GMT -0.452316 104.204620 25,000 349 432 -64
2022-10-06 17:41:27 GMT -0.459005 104.205986 25,000 349 432 -64
2022-10-06 17:41:23 GMT -0.466415 104.207558 25,000 349 432 0
2022-10-06 17:41:20 GMT -0.473110 104.208733 25,000 349 433 0
2022-10-06 17:41:17 GMT -0.479441 104.210106 25,000 349 433 0
2022-10-06 17:41:14 GMT -0.485819 104.211334 25,000 349 433 -128
2022-10-06 17:41:10 GMT -0.494888 104.213051 25,000 349 433 64
2022-10-06 17:41:07 GMT -0.500064 104.214081 25,000 349 433 0
2022-10-06 17:41:02 GMT -0.507094 104.215454 25,000 349 433 64
2022-10-06 17:40:58 GMT -0.515488 104.216957 25,000 349 432 64
2022-10-06 17:40:53 GMT -0.527670 104.219719 25,000 347 433 64
2022-10-06 17:40:48 GMT -0.537818 104.222321 25,000 345 433 0
2022-10-06 17:40:45 GMT -0.543125 104.223839 25,000 344 433 -64
2022-10-06 17:40:42 GMT -0.548309 104.225388 25,000 343 434 -64
2022-10-06 17:40:35 GMT -0.563553 104.230370 25,000 342 433 64
2022-10-06 17:40:32 GMT -0.568222 104.231903 25,000 342 433 64
2022-10-06 17:40:23 GMT -0.585022 104.237396 25,000 342 433 -64
2022-10-06 17:40:20 GMT -0.588467 104.238426 25,000 342 433 -64
2022-10-06 17:40:14 GMT -0.601868 104.242889 25,000 342 433 0
2022-10-06 17:40:11 GMT -0.608734 104.245125 25,000 342 433 0
2022-10-06 17:40:03 GMT -0.624498 104.250122 25,000 342 434 0
2022-10-06 17:40:00 GMT -0.627960 104.251312 25,000 342 434 0
2022-10-06 17:39:50 GMT -0.649384 104.258156 24,975 342 434 0
2022-10-06 17:39:38 GMT -0.669840 104.264893 25,000 342 434 -64
2022-10-06 17:39:31 GMT -0.686325 104.270355 25,000 342 435 0
2022-10-06 17:39:28 GMT -0.690948 104.271751 25,000 342 435 0
2022-10-06 17:39:20 GMT -0.707062 104.277061 25,000 342 436 64
2022-10-06 17:39:17 GMT -0.709829 104.277916 25,000 342 436 64
2022-10-06 17:39:11 GMT -0.724399 104.282745 25,000 342 436 0
2022-10-06 17:39:08 GMT -0.729753 104.284592 25,000 342 436 0
2022-10-06 17:39:02 GMT -0.737823 104.287209 25,000 342 436 0
2022-10-06 17:38:56 GMT -0.750515 104.291321 25,000 342 437 0
2022-10-06 17:38:51 GMT -0.760986 104.294746 25,000 342 437 0
2022-10-06 17:38:47 GMT -0.769927 104.297661 25,000 342 437 0
2022-10-06 17:38:41 GMT -0.779191 104.300743 25,000 342 437 0
2022-10-06 17:38:35 GMT -0.789991 104.304199 25,000 342 438 -64
2022-10-06 17:38:29 GMT -0.804749 104.309174 25,000 342 437 0
2022-10-06 17:38:24 GMT -0.814012 104.312057 24,975 342 438 64
2022-10-06 17:38:14 GMT -0.831888 104.317932 25,000 342 439 -64
2022-10-06 17:38:04 GMT -0.851254 104.324280 25,000 342 441 0
2022-10-06 17:37:54 GMT -0.872726 104.331291 25,000 342 442 0
2022-10-06 17:37:43 GMT -0.892639 104.337822 25,000 342 443 64
2022-10-06 17:37:32 GMT -0.916489 104.345535 24,975 342 443 -64
2022-10-06 17:37:22 GMT -0.936951 104.352242 25,000 343 444 -128
2022-10-06 17:37:11 GMT -0.956323 104.358421 24,975 343 445 384
2022-10-06 17:37:01 GMT -0.975540 104.364624 25,025 342 445 -768
2022-10-06 17:36:49 GMT -0.999939 104.372490 25,075 343 443 -64
2022-10-06 17:36:38 GMT -1.018982 104.378685 25,050 342 439 64
2022-10-06 17:36:29 GMT -1.039581 104.385384 25,000 342 438 192
2022-10-06 17:36:16 GMT -1.066727 104.394325 25,000 342 439 -64
2022-10-06 17:36:08 GMT -1.080291 104.398766 25,000 342 440 -64
2022-10-06 17:36:04 GMT -1.085086 104.400330 25,000 342 440 -64
2022-10-06 17:35:57 GMT -1.103256 104.406151 25,000 342 439 64
2022-10-06 17:35:48 GMT -1.118912 104.411316 25,000 342 440 -128
2022-10-06 17:35:45 GMT -1.126602 104.413879 25,000 342 440 -64
2022-10-06 17:35:36 GMT -1.138962 104.417831 25,000 342 441 0
2022-10-06 17:35:33 GMT -1.147233 104.420547 25,000 342 441 -64
2022-10-06 17:35:24 GMT -1.165604 104.426582 25,000 342 440 -64
2022-10-06 17:35:20 GMT -1.172607 104.428818 25,000 342 440 0
2022-10-06 17:35:09 GMT -1.194763 104.436035 25,000 342 440 64
2022-10-06 17:35:00 GMT -1.213806 104.442177 25,000 342 440 0
2022-10-06 17:34:45 GMT -1.240448 104.450790 25,000 342 440 0
2022-10-06 17:34:37 GMT -1.256398 104.455925 25,000 342 440 64
2022-10-06 17:34:27 GMT -1.274597 104.461922 25,000 342 440 0
2022-10-06 17:34:18 GMT -1.298126 104.469505 25,000 342 440 0
2022-10-06 17:34:13 GMT -1.303928 104.471359 25,000 342 440 0
2022-10-06 17:34:09 GMT -1.312540 104.474106 25,000 342 440 0
2022-10-06 17:33:57 GMT -1.333145 104.480820 25,000 342 440 0
2022-10-06 17:33:42 GMT -1.365377 104.491295 25,000 342 441 -64
2022-10-06 17:33:34 GMT -1.383087 104.497108 25,000 342 441 -64
2022-10-06 17:33:25 GMT -1.397498 104.501762 25,000 342 441 -64
2022-10-06 17:32:51 GMT -1.463928 104.523552 25,000 342 441 0
2022-10-06 17:32:42 GMT -1.480408 104.528908 25,000 342 441 0
We lost coverage of the aircraft here for a total of 24 minutes
2022-10-06 17:08:26 GMT -4.027513 105.422913 14,275 340 402 -3136
2022-10-06 17:08:21 GMT -4.037155 105.426529 14,550 339 405 -3008
2022-10-06 17:08:10 GMT -4.056702 105.434067 15,125 339 408 -3136
2022-10-06 17:07:59 GMT -4.074904 105.441284 15,650 339 412 -2944
2022-10-06 17:07:48 GMT -4.094968 105.449005 16,250 339 415 -3520
2022-10-06 17:07:38 GMT -4.112686 105.455856 16,825 339 416 -3584
2022-10-06 17:07:27 GMT -4.133420 105.463776 17,525 340 417 -3648
2022-10-06 17:07:16 GMT -4.152649 105.470985 18,125 340 419 -3392
2022-10-06 17:07:06 GMT -4.171220 105.477982 18,700 340 421 -2944
2022-10-06 17:06:56 GMT -4.190781 105.485367 19,150 340 427 -2048
2022-10-06 17:06:45 GMT -4.210696 105.493088 19,575 339 433 -3072
2022-10-06 17:06:34 GMT -4.230606 105.500824 20,275 339 431 -5120
2022-10-06 17:06:28 GMT -4.241421 105.505119 20,800 339 427 -5056
2022-10-06 17:06:24 GMT -4.250173 105.508575 21,175 339 426 -4352
2022-10-06 17:06:09 GMT -4.278168 105.519539 21,750 339 432 -1344
2022-10-06 17:06:03 GMT -4.289975 105.524200 21,875 339 444 -1024
2022-10-06 17:05:52 GMT -4.310272 105.531921 22,150 340 455 -2368
2022-10-06 17:05:42 GMT -4.330848 105.539780 22,750 339 457 -4224
2022-10-06 17:05:38 GMT -4.339966 105.543236 23,100 339 454 -5248
2022-10-06 17:05:36 GMT -4.341834 105.544090 23,200 339 454 -5248
2022-10-06 17:05:35 GMT -4.345791 105.545464 23,375 339 453 -5056
2022-10-06 17:05:32 GMT -4.351284 105.547691 23,625 339 451 -4672
2022-10-06 17:05:29 GMT -4.355241 105.549065 23,750 339 451 -4672
2022-10-06 17:05:28 GMT -4.357269 105.549934 23,825 339 451 -4544
2022-10-06 17:05:22 GMT -4.368602 105.554230 24,250 339 449 -3968
2022-10-06 17:05:20 GMT -4.372925 105.555939 24,600 339 449 -4032
2022-10-06 17:05:17 GMT -4.378750 105.558159 24,600 339 449 -4096
2022-10-06 17:05:16 GMT -4.380615 105.558876 24,675 339 448 -4224
2022-10-06 17:05:14 GMT -4.384598 105.560410 24,825 339 447 -4352
2022-10-06 17:05:12 GMT -4.388351 105.561951 24,975 339 447 -4352
2022-10-06 17:05:11 GMT -4.392288 105.563301 25,100 339 446 -4416
2022-10-06 17:05:09 GMT -4.393845 105.563995 25,175 339 446 -4416
2022-10-06 17:05:05 GMT -4.401581 105.566933 25,450 339 444 -4224
2022-10-06 17:05:01 GMT -4.409134 105.570000 25,750 339 443 -4096
2022-10-06 17:04:59 GMT -4.414269 105.571892 26,075 339 443 -4096
2022-10-06 17:04:56 GMT -4.418738 105.573639 26,075 339 442 -3968
2022-10-06 17:04:55 GMT -4.420807 105.574471 26,150 339 442 -3776
2022-10-06 17:04:53 GMT -4.426117 105.576515 26,300 340 442 -3584
2022-10-06 17:04:52 GMT -4.428002 105.577240 26,375 340 442 -3584
2022-10-06 17:04:50 GMT -4.431427 105.578430 26,475 340 442 -3648
2022-10-06 17:04:49 GMT -4.433309 105.579277 26,525 340 442 -3648
2022-10-06 17:04:47 GMT -4.437266 105.580650 26,650 340 442 -3840
2022-10-06 17:04:46 GMT -4.438802 105.581360 26,725 340 442 -3840
2022-10-06 17:04:44 GMT -4.442963 105.582893 26,850 340 440 -3968
2022-10-06 17:04:43 GMT -4.444854 105.583588 26,925 340 440 -3968
2022-10-06 17:04:42 GMT -4.450347 105.585625 27,125 340 440 -3968
2022-10-06 17:04:40 GMT -4.450347 105.585625 27,125 340 439 -3904
2022-10-06 17:04:38 GMT -4.453766 105.586990 27,225 340 439 -3904
2022-10-06 17:04:37 GMT -4.456009 105.587875 27,300 340 439 -3904
2022-10-06 17:04:35 GMT -4.459425 105.589081 27,425 340 439 -3840
2022-10-06 17:04:34 GMT -4.463196 105.590591 27,550 340 439 -3712
2022-10-06 17:04:32 GMT -4.465073 105.591324 27,625 340 439 -3712
2022-10-06 17:04:30 GMT -4.469387 105.592865 27,750 340 438 -3520
2022-10-06 17:04:29 GMT -4.471252 105.593697 27,800 340 438 -3520
2022-10-06 17:04:26 GMT -4.476608 105.595604 27,975 340 437 -3392
2022-10-06 17:04:24 GMT -4.480001 105.596985 28,075 340 437 -3264
2022-10-06 17:04:23 GMT -4.481918 105.597656 28,125 340 437 -3264
2022-10-06 17:04:22 GMT -4.483818 105.598358 28,175 340 437 -3264
2022-10-06 17:04:20 GMT -4.487915 105.600075 28,300 340 437 -3264
2022-10-06 17:04:19 GMT -4.489824 105.600731 28,350 340 438 -3264
2022-10-06 17:04:18 GMT -4.493594 105.602104 28,450 340 437 -3328
2022-10-06 17:04:16 GMT -4.498581 105.603981 28,600 340 437 -3392
2022-10-06 17:04:06 GMT -4.515707 105.610199 29,050 340 437 -2752
2022-10-06 17:03:56 GMT -4.534933 105.617210 29,525 341 439 -2560
2022-10-06 17:03:45 GMT -4.555881 105.624596 29,900 341 444 -2240
2022-10-06 17:03:34 GMT -4.576492 105.632332 30,350 340 448 -2752
2022-10-06 17:03:26 GMT -4.593496 105.638519 30,775 340 452 -3264
2022-10-06 17:03:16 GMT -4.613388 105.646255 31,450 339 449 -4352
2022-10-06 17:03:14 GMT -4.617188 105.647789 31,575 339 448 -4096
2022-10-06 17:03:06 GMT -4.632797 105.653793 31,950 340 448 -1856
2022-10-06 17:03:03 GMT -4.637767 105.655663 32,000 340 449 -896
2022-10-06 17:02:56 GMT -4.652710 105.661156 32,025 340 449 192
2022-10-06 17:02:52 GMT -4.658569 105.663383 32,000 340 449 320
2022-10-06 17:02:46 GMT -4.671610 105.668022 32,000 340 450 0
2022-10-06 17:02:42 GMT -4.679855 105.670975 32,025 341 449 -256
2022-10-06 17:02:36 GMT -4.691666 105.675255 32,025 341 449 0
2022-10-06 17:02:31 GMT -4.699914 105.678154 32,025 341 449 256
2022-10-06 17:02:26 GMT -4.711599 105.682274 32,000 341 448 256
2022-10-06 17:02:21 GMT -4.720688 105.685547 32,000 341 447 -64
2022-10-06 17:02:16 GMT -4.731674 105.689316 32,000 341 446 64
2022-10-06 17:02:10 GMT -4.741791 105.692757 31,975 341 445 192
2022-10-06 17:02:05 GMT -4.751587 105.696198 31,975 341 445 0
2022-10-06 17:01:59 GMT -4.762939 105.700111 32,000 341 444 -256
2022-10-06 17:01:54 GMT -4.771500 105.703049 32,025 341 443 -320
2022-10-06 17:01:49 GMT -4.783173 105.707191 32,025 341 442 0
2022-10-06 17:01:45 GMT -4.790222 105.709564 32,025 341 442 448
2022-10-06 17:01:38 GMT -4.803772 105.714188 31,950 341 442 704
2022-10-06 17:01:35 GMT -4.810150 105.716461 31,900 341 442 832
2022-10-06 17:01:25 GMT -4.829515 105.723137 31,750 341 444 768
2022-10-06 17:01:15 GMT -4.849457 105.730003 31,600 341 444 1152
2022-10-06 17:01:05 GMT -4.868666 105.736542 31,425 341 446 1024
2022-10-06 17:00:55 GMT -4.889102 105.743736 31,275 341 448 832
2022-10-06 17:00:45 GMT -4.908654 105.750603 31,125 341 448 768
2022-10-06 17:00:35 GMT -4.928392 105.757477 31,000 341 449 832
2022-10-06 17:00:24 GMT -4.961700 105.769478 30,825 340 449 576
2022-10-06 17:00:14 GMT -4.969265 105.772247 30,800 340 448 576
2022-10-06 17:00:03 GMT -4.989853 105.779762 30,700 340 448 576
2022-10-06 16:59:54 GMT -5.010956 105.787682 30,600 340 448 384
2022-10-06 16:59:42 GMT -5.030900 105.795074 30,550 340 446 384
2022-10-06 16:59:33 GMT -5.048730 105.801750 30,450 340 445 704
2022-10-06 16:59:23 GMT -5.067810 105.808624 30,225 341 447 1728
2022-10-06 16:59:21 GMT -5.072617 105.810165 30,150 341 448 1600
2022-10-06 16:59:13 GMT -5.087540 105.815468 30,050 341 450 192
2022-10-06 16:59:10 GMT -5.093560 105.817566 30,050 341 450 192
2022-10-06 16:59:03 GMT -5.107269 105.822365 30,000 341 448 320
2022-10-06 16:58:59 GMT -5.114648 105.824951 29,975 341 447 192
2022-10-06 16:58:53 GMT -5.126862 105.829201 29,950 342 447 448
2022-10-06 16:58:51 GMT -5.131314 105.830589 29,925 341 446 256
2022-10-06 16:58:49 GMT -5.135084 105.831963 29,925 341 446 192
2022-10-06 16:58:41 GMT -5.151564 105.837646 29,850 341 444 768
2022-10-06 16:58:39 GMT -5.155521 105.839020 29,825 341 445 640
2022-10-06 16:58:33 GMT -5.166000 105.842613 29,800 341 445 320
2022-10-06 16:58:31 GMT -5.171116 105.844513 29,775 341 445 640
2022-10-06 16:58:28 GMT -5.176300 105.846199 29,750 341 445 832
2022-10-06 16:58:23 GMT -5.186059 105.849480 29,675 341 446 320
2022-10-06 16:58:20 GMT -5.192780 105.851875 29,675 341 445 128
2022-10-06 16:58:17 GMT -5.197403 105.853409 29,675 341 445 384
2022-10-06 16:58:13 GMT -5.205963 105.856346 29,625 342 444 640
2022-10-06 16:58:09 GMT -5.213339 105.858910 29,600 342 443 448
2022-10-06 16:58:06 GMT -5.219716 105.861130 29,575 342 444 384
2022-10-06 16:58:03 GMT -5.225555 105.863045 29,550 342 443 704
2022-10-06 16:58:00 GMT -5.231735 105.865097 29,500 342 443 576
2022-10-06 16:57:56 GMT -5.238785 105.867516 29,475 342 443 384
2022-10-06 16:57:53 GMT -5.244965 105.869568 29,450 342 441 448
2022-10-06 16:57:50 GMT -5.251651 105.871788 29,425 342 441 704
2022-10-06 16:57:43 GMT -5.264174 105.875908 29,325 342 441 512
2022-10-06 16:57:39 GMT -5.271561 105.878319 29,325 342 441 320
2022-10-06 16:57:33 GMT -5.283586 105.882256 29,275 342 439 384
2022-10-06 16:57:30 GMT -5.290615 105.884666 29,250 342 438 320
2022-10-06 16:57:22 GMT -5.304153 105.888977 29,200 342 438 448
2022-10-06 16:57:20 GMT -5.309509 105.890839 29,175 342 437 320
2022-10-06 16:57:13 GMT -5.323062 105.895134 29,125 342 437 512
2022-10-06 16:57:11 GMT -5.326950 105.896568 29,100 342 437 640
2022-10-06 16:57:09 GMT -5.329254 105.897217 29,075 342 437 640
2022-10-06 16:57:03 GMT -5.341919 105.901497 29,000 342 437 704
2022-10-06 16:57:00 GMT -5.348061 105.903610 28,975 342 436 768
2022-10-06 16:56:53 GMT -5.361145 105.908020 28,850 341 437 1152
2022-10-06 16:56:50 GMT -5.367188 105.910248 28,800 341 437 1024
2022-10-06 16:56:42 GMT -5.381066 105.915070 28,725 341 436 320
2022-10-06 16:56:39 GMT -5.388282 105.917625 28,700 341 435 384
2022-10-06 16:56:32 GMT -5.402015 105.922455 28,650 341 434 256
2022-10-06 16:56:27 GMT -5.410767 105.925522 28,625 342 433 448
2022-10-06 16:56:23 GMT -5.418820 105.928093 28,575 344 431 576
2022-10-06 16:56:20 GMT -5.424174 105.929657 28,550 345 430 448
2022-10-06 16:56:13 GMT -5.438046 105.933067 28,450 347 429 1024
2022-10-06 16:56:10 GMT -5.441986 105.934036 28,400 348 428 1344
2022-10-06 16:56:07 GMT -5.450243 105.935669 28,275 350 430 2048
2022-10-06 16:56:03 GMT -5.457779 105.936974 28,150 351 431 2176
2022-10-06 16:56:00 GMT -5.462952 105.937714 27,925 353 432 1792
2022-10-06 16:55:53 GMT -5.477646 105.939392 27,900 356 434 896
2022-10-06 16:55:50 GMT -5.484055 105.939766 27,875 357 433 512
2022-10-06 16:55:47 GMT -5.490231 105.940117 27,850 359 432 384
2022-10-06 16:55:43 GMT -5.497819 105.940308 27,825 0 431 384
2022-10-06 16:55:39 GMT -5.505341 105.940277 27,800 0 430 448
2022-10-06 16:55:33 GMT -5.517697 105.940643 27,750 0 429 512
2022-10-06 16:55:28 GMT -5.526123 105.940643 27,725 0 428 512
2022-10-06 16:55:23 GMT -5.537567 105.940979 27,675 0 427 576
2022-10-06 16:55:19 GMT -5.545670 105.940979 27,625 0 426 640
2022-10-06 16:55:17 GMT -5.550659 105.941162 27,600 0 425 640
2022-10-06 16:55:12 GMT -5.557872 105.941162 27,550 0 425 640
2022-10-06 16:55:07 GMT -5.568878 105.941299 27,500 0 424 896
2022-10-06 16:55:02 GMT -5.577610 105.941498 27,400 0 424 1024
2022-10-06 16:54:55 GMT -5.591354 105.941673 27,300 0 424 768
2022-10-06 16:54:52 GMT -5.597208 105.941826 27,275 0 423 704
2022-10-06 16:54:46 GMT -5.609917 105.942017 27,200 0 422 832
2022-10-06 16:54:42 GMT -5.617264 105.942001 27,125 0 422 896
2022-10-06 16:54:35 GMT -5.630676 105.942329 27,025 0 422 896
2022-10-06 16:54:32 GMT -5.636498 105.942345 27,000 0 421 896
2022-10-06 16:54:25 GMT -5.651779 105.942696 26,800 0 421 960
2022-10-06 16:54:22 GMT -5.656097 105.942680 26,825 0 421 960
2022-10-06 16:54:14 GMT -5.671692 105.942863 26,700 0 420 896
2022-10-06 16:54:11 GMT -5.677883 105.943054 26,650 0 420 832
2022-10-06 16:54:02 GMT -5.695899 105.943199 26,525 0 419 1088
2022-10-06 16:53:54 GMT -5.711884 105.943535 26,400 0 419 704
2022-10-06 16:53:52 GMT -5.714951 105.943535 26,375 0 418 768
2022-10-06 16:53:42 GMT -5.734360 105.943909 26,225 0 417 960
2022-10-06 16:53:32 GMT -5.754974 105.944237 26,075 0 416 960
2022-10-06 16:53:23 GMT -5.770752 105.944420 25,950 0 415 832
2022-10-06 16:53:21 GMT -5.774689 105.944557 25,950 0 415 896
2022-10-06 16:53:13 GMT -5.790493 105.944763 25,800 0 414 896
2022-10-06 16:53:11 GMT -5.795471 105.944931 25,775 0 414 832
2022-10-06 16:53:02 GMT -5.811954 105.945091 25,650 0 412 960
2022-10-06 16:53:00 GMT -5.815384 105.945259 25,625 0 412 1024
2022-10-06 16:52:52 GMT -5.830994 105.945427 25,475 0 412 1024
2022-10-06 16:52:49 GMT -5.835649 105.945610 25,425 0 411 896
2022-10-06 16:52:42 GMT -5.850586 105.945770 25,300 0 410 1216
2022-10-06 16:52:38 GMT -5.857761 105.945946 25,225 0 410 1216
2022-10-06 16:52:32 GMT -5.869958 105.946136 25,100 0 410 1088
2022-10-06 16:52:27 GMT -5.877686 105.946274 25,025 0 410 1088
2022-10-06 16:52:22 GMT -5.888998 105.946465 24,925 0 409 1088
2022-10-06 16:52:16 GMT -5.898468 105.946655 24,850 0 409 960
2022-10-06 16:52:12 GMT -5.908084 105.946800 24,775 0 408 896
2022-10-06 16:52:06 GMT -5.917860 105.946800 24,675 0 407 1088
2022-10-06 16:52:02 GMT -5.926938 105.946983 24,600 0 406 896
2022-10-06 16:51:56 GMT -5.937412 105.947174 24,525 0 405 832
2022-10-06 16:51:51 GMT -5.946167 105.947304 24,450 0 404 1088
2022-10-06 16:51:43 GMT -5.962646 105.947495 24,300 0 403 1024
2022-10-06 16:51:41 GMT -5.965250 105.947510 24,275 0 402 1024
2022-10-06 16:51:35 GMT -5.976929 105.947678 24,150 0 402 1216
2022-10-06 16:51:31 GMT -5.983964 105.947838 24,075 0 401 1216
2022-10-06 16:51:24 GMT -5.996673 105.948029 23,950 0 401 1152
2022-10-06 16:51:21 GMT -6.003330 105.948029 23,875 0 400 1024
2022-10-06 16:51:13 GMT -6.016737 105.948174 23,775 0 399 960
2022-10-06 16:51:10 GMT -6.022247 105.948380 23,725 0 398 1024
2022-10-06 16:51:01 GMT -6.040432 105.948547 23,550 0 397 1024
2022-10-06 16:50:51 GMT -6.058774 105.948692 23,400 0 395 768
2022-10-06 16:50:41 GMT -6.076976 105.949020 23,225 0 392 960
2022-10-06 16:50:38 GMT -6.081802 105.949028 23,200 0 391 896
2022-10-06 16:50:31 GMT -6.095178 105.949211 23,050 0 390 1088
2022-10-06 16:50:21 GMT -6.112885 105.949402 22,875 0 389 1408
2022-10-06 16:50:10 GMT -6.132094 105.949547 22,625 0 388 1536
2022-10-06 16:50:01 GMT -6.151840 105.949730 22,300 0 389 1664
2022-10-06 16:49:51 GMT -6.167816 105.949913 22,075 0 390 1728
2022-10-06 16:49:48 GMT -6.172073 105.950050 22,000 0 390 1664
2022-10-06 16:49:41 GMT -6.185120 105.950241 21,800 359 390 1728
2022-10-06 16:49:38 GMT -6.190292 105.950424 21,725 359 390 1792
2022-10-06 16:49:31 GMT -6.204025 105.950569 21,500 359 391 1856
2022-10-06 16:49:28 GMT -6.209152 105.950752 21,400 359 391 1856
2022-10-06 16:49:21 GMT -6.222198 105.950935 21,225 359 392 1408
2022-10-06 16:49:17 GMT -6.228058 105.951126 21,150 359 391 1408
2022-10-06 16:49:11 GMT -6.240417 105.951447 21,000 359 390 1152
2022-10-06 16:49:06 GMT -6.248148 105.951630 20,925 359 389 1088
2022-10-06 16:49:00 GMT -6.258948 105.951767 20,800 359 388 1216
2022-10-06 16:48:56 GMT -6.266862 105.951958 20,700 359 387 1408
2022-10-06 16:48:50 GMT -6.277662 105.952148 20,550 0 386 1024
2022-10-06 16:48:45 GMT -6.285576 105.952293 20,475 0 386 1024
2022-10-06 16:48:40 GMT -6.295166 105.952477 20,375 0 384 1024
2022-10-06 16:48:35 GMT -6.304459 105.952477 20,300 0 383 1152
2022-10-06 16:48:30 GMT -6.313705 105.952660 20,200 0 381 1088
2022-10-06 16:48:24 GMT -6.324028 105.952812 20,100 359 379 1024
2022-10-06 16:48:19 GMT -6.331756 105.953003 20,000 359 378 1152
2022-10-06 16:48:14 GMT -6.341858 105.953171 19,900 359 376 1216
2022-10-06 16:48:10 GMT -6.348907 105.953316 19,800 359 375 1152
2022-10-06 16:48:08 GMT -6.352658 105.953331 19,775 358 373 1536
2022-10-06 16:48:03 GMT -6.360386 105.953522 19,675 359 374 1408
2022-10-06 16:48:00 GMT -6.366257 105.953682 19,575 358 373 1536
2022-10-06 16:47:50 GMT -6.383755 105.955887 19,350 348 373 1216
2022-10-06 16:47:40 GMT -6.400234 105.961571 19,125 335 375 1600
2022-10-06 16:47:30 GMT -6.417389 105.972725 18,825 319 377 1344
2022-10-06 16:47:20 GMT -6.429565 105.985435 18,625 309 377 1472
2022-10-06 16:47:10 GMT -6.438492 105.997261 18,375 306 377 1792
2022-10-06 16:47:05 GMT -6.443161 106.004333 18,225 303 378 1792
2022-10-06 16:46:59 GMT -6.447950 106.012573 18,075 299 378 1728
2022-10-06 16:46:54 GMT -6.451907 106.020622 17,925 295 378 1600
2022-10-06 16:46:49 GMT -6.455166 106.028534 17,800 292 379 1536
2022-10-06 16:46:43 GMT -6.458751 106.039185 17,625 286 379 1792
2022-10-06 16:46:40 GMT -6.460147 106.043968 17,550 284 378 1792
2022-10-06 16:46:38 GMT -6.460831 106.046371 17,525 284 378 1792
2022-10-06 16:46:31 GMT -6.463577 106.060799 17,275 280 378 1664
2022-10-06 16:46:29 GMT -6.464104 106.063194 17,225 279 378 1664
2022-10-06 16:46:27 GMT -6.464447 106.065598 17,200 279 378 1664
2022-10-06 16:46:21 GMT -6.466339 106.077782 17,000 279 377 1792
2022-10-06 16:46:19 GMT -6.466644 106.080215 16,950 279 377 1792
2022-10-06 16:46:17 GMT -6.467177 106.083275 16,900 278 377 1728
2022-10-06 16:46:09 GMT -6.468527 106.098045 16,650 272 376 1920
2022-10-06 16:46:06 GMT -6.468713 106.102165 16,575 272 376 1920
2022-10-06 16:45:58 GMT -6.468384 106.115921 16,350 267 376 1728
2022-10-06 16:45:54 GMT -6.467514 106.123459 16,250 264 376 1600
2022-10-06 16:45:49 GMT -6.466141 106.132401 16,075 260 375 1728
2022-10-06 16:45:45 GMT -6.464951 106.138542 16,000 260 374 1792
2022-10-06 16:45:39 GMT -6.462894 106.149193 15,800 260 373 1728
2022-10-06 16:45:35 GMT -6.461517 106.156418 15,675 259 373 1664
2022-10-06 16:45:29 GMT -6.459457 106.166519 15,500 258 371 1856
2022-10-06 16:45:26 GMT -6.458425 106.170830 15,425 257 371 1728
2022-10-06 16:45:24 GMT -6.457401 106.174950 15,350 255 370 1664
2022-10-06 16:45:19 GMT -6.454980 106.182861 15,225 252 370 1728
2022-10-06 16:45:16 GMT -6.453278 106.187653 15,125 251 369 1728
2022-10-06 16:45:13 GMT -6.451535 106.192474 15,050 251 368 1792
2022-10-06 16:45:09 GMT -6.448975 106.199669 14,900 251 368 1792
2022-10-06 16:45:05 GMT -6.447281 106.204460 14,825 251 367 1728
2022-10-06 16:45:02 GMT -6.445390 106.209946 14,700 251 366 1792
2022-10-06 16:44:58 GMT -6.442969 106.216339 14,600 251 365 1856
2022-10-06 16:44:52 GMT -6.439385 106.226425 14,375 251 364 2048
2022-10-06 16:44:49 GMT -6.437476 106.231590 14,275 251 363 2112
2022-10-06 16:44:39 GMT -6.431983 106.246887 13,925 251 362 2176
2022-10-06 16:44:29 GMT -6.426132 106.263023 13,550 251 361 2176
2022-10-06 16:44:19 GMT -6.420502 106.278809 13,175 250 361 2368
2022-10-06 16:44:11 GMT -6.416016 106.290314 12,875 249 361 2240
2022-10-06 16:44:09 GMT -6.413956 106.294960 12,775 247 360 2240
2022-10-06 16:44:02 GMT -6.409332 106.304733 12,525 242 361 2176
2022-10-06 16:43:59 GMT -6.406938 106.309013 12,425 240 360 2176
2022-10-06 16:43:52 GMT -6.400223 106.319489 12,175 235 358 1856
2022-10-06 16:43:49 GMT -6.397302 106.323456 12,100 233 358 1856
2022-10-06 16:43:42 GMT -6.390272 106.332359 11,875 231 355 1856
2022-10-06 16:43:38 GMT -6.385989 106.337334 11,775 231 354 1792
2022-10-06 16:43:29 GMT -6.376373 106.349380 11,500 231 349 1664
2022-10-06 16:43:19 GMT -6.366251 106.361534 11,250 231 344 1600
2022-10-06 16:43:16 GMT -6.363831 106.364464 11,200 231 343 1728
2022-10-06 16:43:09 GMT -6.355777 106.374268 11,000 231 338 1024
2022-10-06 16:43:06 GMT -6.353356 106.377159 10,950 231 335 768
2022-10-06 16:42:59 GMT -6.346327 106.385727 10,825 231 328 1216
2022-10-06 16:42:55 GMT -6.343254 106.389519 10,775 231 327 1088
2022-10-06 16:42:49 GMT -6.336044 106.397934 10,675 231 320 960
2022-10-06 16:42:45 GMT -6.332920 106.401878 10,600 231 316 1280
2022-10-06 16:42:40 GMT -6.327942 106.407898 10,475 231 311 1024
2022-10-06 16:42:38 GMT -6.326752 106.409248 10,450 231 310 960
2022-10-06 16:42:34 GMT -6.323502 106.413200 10,400 231 307 1152
2022-10-06 16:42:28 GMT -6.317642 106.420235 10,225 231 302 1920
2022-10-06 16:42:23 GMT -6.313522 106.425400 10,050 231 301 2112
2022-10-06 16:42:20 GMT -6.309952 106.429680 9,900 231 299 2176
2022-10-06 16:42:18 GMT -6.308713 106.431236 9,850 231 299 2176
2022-10-06 16:42:13 GMT -6.304596 106.436195 9,700 231 298 2048
2022-10-06 16:42:10 GMT -6.301163 106.440529 9,550 232 297 2176
2022-10-06 16:42:07 GMT -6.299961 106.442032 9,500 232 297 2240
2022-10-06 16:42:00 GMT -6.292099 106.451653 9,125 231 295 2496
2022-10-06 16:41:58 GMT -6.291412 106.452538 9,100 231 295 2432
2022-10-06 16:41:52 GMT -6.286088 106.459038 8,850 231 294 2240
2022-10-06 16:41:48 GMT -6.282643 106.463341 8,700 231 293 2240
2022-10-06 16:41:41 GMT -6.276993 106.470230 8,450 231 292 2304
2022-10-06 16:41:38 GMT -6.274404 106.473289 8,325 231 291 2304
2022-10-06 16:41:31 GMT -6.268204 106.481216 8,050 234 289 2432
2022-10-06 16:41:27 GMT -6.265640 106.484802 7,900 236 289 2624
2022-10-06 16:41:18 GMT -6.258110 106.495453 7,500 231 288 2368
2022-10-06 16:41:07 GMT -6.248291 106.504860 7,050 218 287 2624
2022-10-06 16:40:58 GMT -6.237674 106.511597 6,625 210 284 2688
2022-10-06 16:40:48 GMT -6.225998 106.518272 6,150 210 284 2880
2022-10-06 16:40:40 GMT -6.215515 106.524460 5,725 210 284 2752
2022-10-06 16:40:38 GMT -6.214142 106.525162 5,675 210 284 2752
2022-10-06 16:40:30 GMT -6.204203 106.530823 5,275 210 284 2816
2022-10-06 16:40:27 GMT -6.202148 106.532005 5,175 210 284 2816
2022-10-06 16:40:17 GMT -6.190475 106.538895 4,725 211 281 2624
2022-10-06 16:40:10 GMT -6.181206 106.544365 4,325 211 279 2944
2022-10-06 16:40:08 GMT -6.180322 106.544891 4,300 211 279 2944
2022-10-06 16:39:58 GMT -6.169327 106.551414 3,800 212 279 2624
2022-10-06 16:39:56 GMT -6.166403 106.553131 3,725 212 278 2560
2022-10-06 16:39:48 GMT -6.158023 106.558098 3,425 211 274 2304
2022-10-06 16:39:45 GMT -6.155090 106.559998 3,325 212 273 2240
2022-10-06 16:39:38 GMT -6.147176 106.564636 3,100 212 268 1408
2022-10-06 16:39:34 GMT -6.143406 106.567001 3,025 213 263 1216
2022-10-06 16:39:28 GMT -6.136917 106.571480 2,875 219 255 1280
2022-10-06 16:39:24 GMT -6.133444 106.574394 2,800 224 251 1088
2022-10-06 16:39:18 GMT -6.128649 106.579742 2,650 231 243 1728
2022-10-06 16:39:13 GMT -6.125565 106.583488 2,525 232 239 2048
2022-10-06 16:39:08 GMT -6.121945 106.588127 2,325 232 235 2176
2022-10-06 16:39:02 GMT -6.118174 106.592957 2,150 236 232 1792
2022-10-06 16:38:58 GMT -6.114776 106.598969 2,000 243 228 1024
2022-10-06 16:38:55 GMT -6.113705 106.601196 1,950 246 224 960
2022-10-06 16:38:52 GMT -6.113054 106.602707 1,925 248 221 1024
2022-10-06 16:38:51 GMT -6.112030 106.604980 1,900 249 219 1024
2022-10-06 16:38:49 GMT -6.111832 106.605461 1,875 249 218 1024
2022-10-06 16:38:47 GMT -6.111145 106.607536 1,850 249 214 1024
2022-10-06 16:38:46 GMT -6.110825 106.608208 1,800 249 213 1024
2022-10-06 16:38:45 GMT -6.110138 106.609932 1,800 249 211 1024
2022-10-06 16:38:43 GMT -6.109772 106.611145 1,775 250 209 1024
2022-10-06 16:38:42 GMT -6.109423 106.611992 1,750 250 207 1024
2022-10-06 16:38:40 GMT -6.108585 106.614075 1,725 250 205 1024
2022-10-06 16:38:39 GMT -6.108078 106.615799 1,675 251 202 1088
2022-10-06 16:38:37 GMT -6.107700 106.616631 1,675 251 200 1088
2022-10-06 16:38:36 GMT -6.107391 106.617470 1,625 251 199 1024
2022-10-06 16:38:35 GMT -6.106676 106.619377 1,600 251 197 960
2022-10-06 16:38:33 GMT -6.106350 106.620422 1,575 251 194 896
2022-10-06 16:38:30 GMT -6.105466 106.622833 1,550 252 191 832
2022-10-06 16:38:29 GMT -6.104954 106.624542 1,500 251 187 960
2022-10-06 16:38:26 GMT -6.104628 106.625397 1,500 251 185 1152
2022-10-06 16:38:25 GMT -6.104441 106.626053 1,450 251 184 1280
2022-10-06 16:38:23 GMT -6.103790 106.627953 1,325 251 181 1920
2022-10-06 16:38:21 GMT -6.102905 106.630043 1,325 250 180 2048
2022-10-06 16:38:19 GMT -6.102579 106.631218 1,275 250 180 2112
2022-10-06 16:38:15 GMT -6.101532 106.634140 1,000 249 176 2240
2022-10-06 16:38:12 GMT -6.100345 106.637039 1,000 249 176 2048
2022-10-06 16:38:10 GMT -6.099655 106.638794 950 249 176 1792
2022-10-06 16:38:09 GMT -6.099460 106.639458 900 249 172 2560
2022-10-06 16:37:58 GMT -6.096405 106.647362 450 249 174 2560
2022-10-06 16:37:47 GMT -6.093109 106.655411 150 249 169 1280
2022-10-06 16:37:34 GMT -6.089684 106.664177 100 248 138 0
2022-10-06 16:36:42 GMT -6.085727 106.673454 75 180 1 0
2022-10-06 16:36:33 GMT -6.085588 106.673454 75 255 7 0
2022-10-06 16:36:23 GMT -6.085588 106.673790 75 279 7 0
2022-10-06 16:36:00 GMT -6.086100 106.674644 75 315 11 0
2022-10-06 16:35:51 GMT -6.086426 106.674828 75 337 9 0
2022-10-06 16:35:35 GMT -6.086938 106.675163 75 340 8 0
2022-10-06 16:35:29 GMT -6.087112 106.675148 75 334 6 0
2022-10-06 16:34:42 GMT -6.086938 106.677246 75 252 12 0
2022-10-06 16:34:33 GMT -6.086938 106.677765 100 260 11 0
2022-10-06 16:34:21 GMT -6.086929 106.678413 100 286 11 0

Making use of Plane Finder data

You are free to use the raw flight data, aircraft information and images provided in this report for your own purposes provided the data is correctly attributed to Plane Finder. We ask that you please credit Plane Finder and link to planefinder.net in close proximity to the content.

Optionally one of the following logos (no smaller then 150x24px) can be used and must link to planefinder.net

Embedding the Plane Finder map

You are welcome to embed the Plane Finder playback map on your website to offer visitors a more interactive experience. We suggest using the following HTML code:

<iframe src="//planefinder.net/data/report/8F214-PK-DJS-7700-squawk-2022-10-06/map" width="800" height="600" seamless="seamless"></iframe>

Where our data comes from

Plane Finder has a global network of data feeds and antenna radars that receive data broadcast directly from aircraft. The primary technologies used are ADS-B and MLAT. We also show feeds from the FAA and a FLARM glider feed.

Click here to find out more about the Plane Finder network.

How we collect our data